Santo Domingo, Venezuela

2:54 AM VET on March 31, 2015 (GMT -0430)
Mayor Buenaventura Vivas Airport | | Change Station
CLOSE
Current Station
Airport
Location: Santo Domingo,
Elevation: 1083 ft
Nearby Weather Stations

Elev 1083 ft 7.56 °N, 72.03 °W | Updated 3 days ago

Mostly Cloudy
Mostly Cloudy
70 °F
Feels Like 70 °F
N
2
Wind Variable Wind from NW
Gusts mph

Today
High -- | Low -- °F
--% Chance of Precip.
Yesterday
High -- | Low -- °F
Precip. -- in
6:16 AM 6:27 PM
Waxing Gibbous, 85% visible
Pressure 30.12 in
Visibility 6.2 miles
Clouds Overcast 1700 ft
Dew Point 62 °F
Humidity 75%
Rainfall 0.00 in
Snow Depth Not available.
UV 5 out of 12
Pollen Not available.
Air Quality Not available.
Flu Activity Not available.
METAR SVSO 271600Z 00000KT 9999 OVC017 26/19 Q1020

More Conditions Fewer Conditions

Pressure 30.12 in
Visibility 6.2 miles
Clouds Overcast 1700 ft
Dew Point 62 °F
Humidity 75%
Rainfall 0.00 in
Snow Depth Not available.
UV 5 out of 12
Pollen Not available.
Air Quality Not available.
Flu Activity Not available.
METAR SVSO 271600Z 00000KT 9999 OVC017 26/19 Q1020

More Conditions Fewer Conditions

10-Day Weather Forecast

Almanac

Astronomy

Mar. 31, 2015 Rise Set
Actual Time
Civil Twilight
Nautical Twilight
Astronomical Twilight
Moon
Length of Visible Light
Length of Day
Tomorrow will be .
, % of the Moon is Illuminated

Today's Extremes

Country Highs Country Lows

Community

WunderPhotos

Upload Photos

1,809,729 photos uploaded!

WunderBlogs® & News

Nearby

Air Quality

  Air Quality AQ Index Pollutant
Not available.

Snow Depth

Station Depth Elevation

Earthquake Activity

City Distance Mag. Time & Date
Minimum magnitude displayed is 2.5.

Coastal Water Temperatures

Place Temperature

Stations

Nearby Weather Stations

Station Location Temp. Windchill Dew Point Humidity Wind Precip. Elev Updated Type